sensor_id;sensor_type;location;lat;lon;timestamp;P1;durP1;ratioP1;P2;durP2;ratioP2
8642;SDS011;4359;49.358;11.256;2023-05-28T00:03:23;14.38;;;6.13;;
8642;SDS011;4359;49.358;11.256;2023-05-28T00:05:50;17.75;;;6.05;;
8642;SDS011;4359;49.358;11.256;2023-05-28T00:10:41;22.80;;;7.03;;
8642;SDS011;4359;49.358;11.256;2023-05-28T00:13:07;15.38;;;5.53;;
8642;SDS011;4359;49.358;11.256;2023-05-28T00:18:00;11.13;;;5.70;;
8642;SDS011;4359;49.358;11.256;2023-05-28T00:20:26;17.20;;;6.20;;
8642;SDS011;4359;49.358;11.256;2023-05-28T00:25:17;18.25;;;6.80;;
8642;SDS011;4359;49.358;11.256;2023-05-28T00:27:43;12.57;;;6.53;;
8642;SDS011;4359;49.358;11.256;2023-05-28T00:30:08;14.32;;;6.50;;
8642;SDS011;4359;49.358;11.256;2023-05-28T00:32:34;12.13;;;5.55;;
8642;SDS011;4359;49.358;11.256;2023-05-28T00:35:00;14.38;;;6.40;;
8642;SDS011;4359;49.358;11.256;2023-05-28T00:37:25;14.57;;;6.97;;
8642;SDS011;4359;49.358;11.256;2023-05-28T00:42:17;13.68;;;6.43;;
8642;SDS011;4359;49.358;11.256;2023-05-28T00:44:43;19.13;;;7.63;;
8642;SDS011;4359;49.358;11.256;2023-05-28T00:47:09;16.67;;;6.78;;
8642;SDS011;4359;49.358;11.256;2023-05-28T00:52:01;11.35;;;6.22;;
8642;SDS011;4359;49.358;11.256;2023-05-28T00:54:30;15.00;;;6.97;;
8642;SDS011;4359;49.358;11.256;2023-05-28T00:56:56;16.60;;;7.03;;
8642;SDS011;4359;49.358;11.256;2023-05-28T00:59:24;10.57;;;6.00;;
8642;SDS011;4359;49.358;11.256;2023-05-28T01:01:50;11.77;;;5.88;;
8642;SDS011;4359;49.358;11.256;2023-05-28T01:06:42;17.83;;;7.05;;
8642;SDS011;4359;49.358;11.256;2023-05-28T01:09:13;13.55;;;6.43;;
8642;SDS011;4359;49.358;11.256;2023-05-28T01:11:39;12.70;;;5.95;;
8642;SDS011;4359;49.358;11.256;2023-05-28T01:14:07;10.70;;;6.05;;
8642;SDS011;4359;49.358;11.256;2023-05-28T01:16:34;13.48;;;6.07;;
8642;SDS011;4359;49.358;11.256;2023-05-28T01:19:01;12.82;;;5.78;;
8642;SDS011;4359;49.358;11.256;2023-05-28T01:21:33;12.48;;;5.93;;
8642;SDS011;4359;49.358;11.256;2023-05-28T01:24:02;11.52;;;5.72;;
8642;SDS011;4359;49.358;11.256;2023-05-28T01:26:29;12.82;;;6.10;;
8642;SDS011;4359;49.358;11.256;2023-05-28T01:28:55;13.05;;;5.45;;
8642;SDS011;4359;49.358;11.256;2023-05-28T01:31:21;14.43;;;6.28;;
8642;SDS011;4359;49.358;11.256;2023-05-28T01:36:20;15.07;;;6.50;;
8642;SDS011;4359;49.358;11.256;2023-05-28T01:38:49;11.38;;;6.22;;
8642;SDS011;4359;49.358;11.256;2023-05-28T01:41:18;17.42;;;6.40;;
8642;SDS011;4359;49.358;11.256;2023-05-28T01:43:45;11.20;;;5.60;;
8642;SDS011;4359;49.358;11.256;2023-05-28T01:46:11;13.10;;;5.93;;
8642;SDS011;4359;49.358;11.256;2023-05-28T01:48:37;12.07;;;5.53;;
8642;SDS011;4359;49.358;11.256;2023-05-28T01:51:03;10.50;;;5.80;;
8642;SDS011;4359;49.358;11.256;2023-05-28T01:53:30;12.15;;;6.20;;
8642;SDS011;4359;49.358;11.256;2023-05-28T01:58:22;11.48;;;5.80;;
8642;SDS011;4359;49.358;11.256;2023-05-28T02:01:33;14.88;;;5.75;;
8642;SDS011;4359;49.358;11.256;2023-05-28T02:03:34;11.93;;;5.82;;
8642;SDS011;4359;49.358;11.256;2023-05-28T02:08:25;14.88;;;5.68;;
8642;SDS011;4359;49.358;11.256;2023-05-28T02:10:51;15.82;;;6.45;;
8642;SDS011;4359;49.358;11.256;2023-05-28T02:13:17;13.23;;;6.40;;
8642;SDS011;4359;49.358;11.256;2023-05-28T02:18:09;11.93;;;6.05;;
8642;SDS011;4359;49.358;11.256;2023-05-28T02:20:35;14.52;;;7.13;;
8642;SDS011;4359;49.358;11.256;2023-05-28T02:23:01;16.85;;;6.07;;
8642;SDS011;4359;49.358;11.256;2023-05-28T02:27:52;12.50;;;6.35;;
8642;SDS011;4359;49.358;11.256;2023-05-28T02:32:43;12.20;;;5.85;;
8642;SDS011;4359;49.358;11.256;2023-05-28T02:35:09;15.23;;;6.40;;
8642;SDS011;4359;49.358;11.256;2023-05-28T02:37:35;8.95;;;5.78;;
8642;SDS011;4359;49.358;11.256;2023-05-28T02:40:00;11.45;;;6.00;;
8642;SDS011;4359;49.358;11.256;2023-05-28T02:42:28;12.63;;;6.30;;
8642;SDS011;4359;49.358;11.256;2023-05-28T02:47:19;12.52;;;6.40;;
8642;SDS011;4359;49.358;11.256;2023-05-28T02:52:11;16.60;;;6.10;;
8642;SDS011;4359;49.358;11.256;2023-05-28T02:57:02;14.27;;;6.45;;
8642;SDS011;4359;49.358;11.256;2023-05-28T03:01:53;10.60;;;5.78;;
8642;SDS011;4359;49.358;11.256;2023-05-28T03:06:45;13.32;;;6.35;;
8642;SDS011;4359;49.358;11.256;2023-05-28T03:09:10;12.82;;;6.50;;
8642;SDS011;4359;49.358;11.256;2023-05-28T03:14:02;14.88;;;6.45;;
8642;SDS011;4359;49.358;11.256;2023-05-28T03:16:27;14.02;;;6.10;;
8642;SDS011;4359;49.358;11.256;2023-05-28T03:18:53;12.90;;;6.47;;
8642;SDS011;4359;49.358;11.256;2023-05-28T03:23:45;13.20;;;6.07;;
8642;SDS011;4359;49.358;11.256;2023-05-28T03:28:36;13.68;;;6.25;;
8642;SDS011;4359;49.358;11.256;2023-05-28T03:31:01;14.35;;;7.05;;
8642;SDS011;4359;49.358;11.256;2023-05-28T03:33:29;17.35;;;7.45;;
8642;SDS011;4359;49.358;11.256;2023-05-28T03:38:20;12.75;;;6.38;;
8642;SDS011;4359;49.358;11.256;2023-05-28T03:43:11;13.07;;;6.78;;
8642;SDS011;4359;49.358;11.256;2023-05-28T03:48:02;13.52;;;7.30;;
8642;SDS011;4359;49.358;11.256;2023-05-28T03:52:53;11.43;;;7.03;;
8642;SDS011;4359;49.358;11.256;2023-05-28T03:57:45;18.00;;;6.72;;
8642;SDS011;4359;49.358;11.256;2023-05-28T04:00:12;13.80;;;6.93;;
8642;SDS011;4359;49.358;11.256;2023-05-28T04:02:38;14.13;;;6.60;;
8642;SDS011;4359;49.358;11.256;2023-05-28T04:07:30;18.48;;;7.40;;
8642;SDS011;4359;49.358;11.256;2023-05-28T04:12:21;19.98;;;7.40;;
8642;SDS011;4359;49.358;11.256;2023-05-28T04:14:47;15.00;;;7.15;;
8642;SDS011;4359;49.358;11.256;2023-05-28T04:19:39;15.00;;;6.93;;
8642;SDS011;4359;49.358;11.256;2023-05-28T04:22:05;13.35;;;6.80;;
8642;SDS011;4359;49.358;11.256;2023-05-28T04:26:57;12.87;;;7.07;;
8642;SDS011;4359;49.358;11.256;2023-05-28T04:29:24;13.98;;;6.93;;
8642;SDS011;4359;49.358;11.256;2023-05-28T04:31:53;17.50;;;7.57;;
8642;SDS011;4359;49.358;11.256;2023-05-28T04:34:20;15.52;;;7.25;;
8642;SDS011;4359;49.358;11.256;2023-05-28T04:39:13;15.65;;;7.22;;
8642;SDS011;4359;49.358;11.256;2023-05-28T04:41:39;16.73;;;6.90;;
8642;SDS011;4359;49.358;11.256;2023-05-28T04:46:31;13.20;;;6.78;;
8642;SDS011;4359;49.358;11.256;2023-05-28T04:48:58;11.55;;;6.28;;
8642;SDS011;4359;49.358;11.256;2023-05-28T04:53:50;16.10;;;6.68;;
8642;SDS011;4359;49.358;11.256;2023-05-28T04:56:15;13.73;;;6.75;;
8642;SDS011;4359;49.358;11.256;2023-05-28T04:58:41;11.82;;;6.45;;
8642;SDS011;4359;49.358;11.256;2023-05-28T05:01:07;13.30;;;6.13;;
8642;SDS011;4359;49.358;11.256;2023-05-28T05:03:33;10.27;;;5.95;;
8642;SDS011;4359;49.358;11.256;2023-05-28T05:05:59;17.50;;;7.07;;
8642;SDS011;4359;49.358;11.256;2023-05-28T05:08:25;12.48;;;6.45;;
8642;SDS011;4359;49.358;11.256;2023-05-28T05:10:50;13.10;;;6.15;;
8642;SDS011;4359;49.358;11.256;2023-05-28T05:13:16;13.90;;;6.60;;
8642;SDS011;4359;49.358;11.256;2023-05-28T05:15:42;20.08;;;7.00;;
8642;SDS011;4359;49.358;11.256;2023-05-28T05:18:07;12.27;;;6.40;;
8642;SDS011;4359;49.358;11.256;2023-05-28T05:20:33;13.07;;;5.97;;
8642;SDS011;4359;49.358;11.256;2023-05-28T05:22:59;15.75;;;6.70;;
8642;SDS011;4359;49.358;11.256;2023-05-28T05:25:24;16.23;;;6.30;;
8642;SDS011;4359;49.358;11.256;2023-05-28T05:27:50;11.38;;;6.32;;
8642;SDS011;4359;49.358;11.256;2023-05-28T05:30:16;11.68;;;5.97;;
8642;SDS011;4359;49.358;11.256;2023-05-28T05:32:42;11.15;;;6.18;;
8642;SDS011;4359;49.358;11.256;2023-05-28T05:35:08;12.48;;;5.78;;
8642;SDS011;4359;49.358;11.256;2023-05-28T05:37:34;16.80;;;5.93;;
8642;SDS011;4359;49.358;11.256;2023-05-28T05:40:00;15.15;;;6.05;;
8642;SDS011;4359;49.358;11.256;2023-05-28T05:42:26;11.05;;;5.43;;
8642;SDS011;4359;49.358;11.256;2023-05-28T05:44:52;12.70;;;5.65;;
8642;SDS011;4359;49.358;11.256;2023-05-28T05:47:18;10.13;;;5.47;;
8642;SDS011;4359;49.358;11.256;2023-05-28T05:49:43;12.60;;;5.32;;
8642;SDS011;4359;49.358;11.256;2023-05-28T05:52:09;11.60;;;5.03;;
8642;SDS011;4359;49.358;11.256;2023-05-28T05:54:35;8.18;;;4.38;;
8642;SDS011;4359;49.358;11.256;2023-05-28T05:57:00;11.55;;;5.28;;
8642;SDS011;4359;49.358;11.256;2023-05-28T05:59:27;11.55;;;5.18;;
8642;SDS011;4359;49.358;11.256;2023-05-28T06:01:53;10.00;;;4.80;;
8642;SDS011;4359;49.358;11.256;2023-05-28T06:04:19;13.80;;;5.40;;
8642;SDS011;4359;49.358;11.256;2023-05-28T06:06:45;14.18;;;4.88;;
8642;SDS011;4359;49.358;11.256;2023-05-28T06:09:11;14.45;;;5.07;;
8642;SDS011;4359;49.358;11.256;2023-05-28T06:11:37;12.70;;;4.68;;
8642;SDS011;4359;49.358;11.256;2023-05-28T06:14:03;10.07;;;4.35;;
8642;SDS011;4359;49.358;11.256;2023-05-28T06:16:29;12.75;;;4.57;;
8642;SDS011;4359;49.358;11.256;2023-05-28T06:18:55;10.82;;;4.32;;
8642;SDS011;4359;49.358;11.256;2023-05-28T06:21:21;17.55;;;5.93;;
8642;SDS011;4359;49.358;11.256;2023-05-28T06:23:46;9.90;;;4.25;;
8642;SDS011;4359;49.358;11.256;2023-05-28T06:26:12;13.05;;;4.70;;
8642;SDS011;4359;49.358;11.256;2023-05-28T06:28:37;11.20;;;4.53;;
8642;SDS011;4359;49.358;11.256;2023-05-28T06:31:03;13.32;;;4.20;;
8642;SDS011;4359;49.358;11.256;2023-05-28T06:33:29;13.93;;;4.63;;
8642;SDS011;4359;49.358;11.256;2023-05-28T06:35:55;12.95;;;4.30;;
8642;SDS011;4359;49.358;11.256;2023-05-28T06:38:21;11.18;;;4.63;;
8642;SDS011;4359;49.358;11.256;2023-05-28T06:40:46;11.13;;;4.25;;
8642;SDS011;4359;49.358;11.256;2023-05-28T06:43:12;12.75;;;4.72;;
8642;SDS011;4359;49.358;11.256;2023-05-28T06:45:38;15.02;;;4.68;;
8642;SDS011;4359;49.358;11.256;2023-05-28T06:48:04;11.00;;;4.13;;
8642;SDS011;4359;49.358;11.256;2023-05-28T06:50:29;13.52;;;4.65;;
8642;SDS011;4359;49.358;11.256;2023-05-28T06:52:55;9.77;;;4.25;;
8642;SDS011;4359;49.358;11.256;2023-05-28T06:55:21;15.43;;;4.32;;
8642;SDS011;4359;49.358;11.256;2023-05-28T06:57:47;12.15;;;4.38;;
8642;SDS011;4359;49.358;11.256;2023-05-28T07:00:12;13.07;;;4.05;;
8642;SDS011;4359;49.358;11.256;2023-05-28T07:02:42;10.82;;;4.22;;
8642;SDS011;4359;49.358;11.256;2023-05-28T07:05:09;13.05;;;4.00;;
8642;SDS011;4359;49.358;11.256;2023-05-28T07:07:35;12.15;;;4.38;;
8642;SDS011;4359;49.358;11.256;2023-05-28T07:10:02;9.32;;;3.88;;
8642;SDS011;4359;49.358;11.256;2023-05-28T07:12:28;9.50;;;3.92;;
8642;SDS011;4359;49.358;11.256;2023-05-28T07:14:54;10.00;;;4.10;;
8642;SDS011;4359;49.358;11.256;2023-05-28T07:17:20;11.18;;;3.90;;
8642;SDS011;4359;49.358;11.256;2023-05-28T07:19:46;10.43;;;3.83;;
8642;SDS011;4359;49.358;11.256;2023-05-28T07:22:12;8.95;;;3.88;;
8642;SDS011;4359;49.358;11.256;2023-05-28T07:24:38;10.60;;;3.95;;
8642;SDS011;4359;49.358;11.256;2023-05-28T07:27:04;13.57;;;3.90;;
8642;SDS011;4359;49.358;11.256;2023-05-28T07:29:29;12.75;;;3.90;;
8642;SDS011;4359;49.358;11.256;2023-05-28T07:31:55;12.50;;;4.00;;
8642;SDS011;4359;49.358;11.256;2023-05-28T07:34:21;14.18;;;4.70;;
8642;SDS011;4359;49.358;11.256;2023-05-28T07:36:46;13.77;;;4.28;;
8642;SDS011;4359;49.358;11.256;2023-05-28T07:39:12;12.43;;;4.68;;
8642;SDS011;4359;49.358;11.256;2023-05-28T07:41:38;10.13;;;3.92;;
8642;SDS011;4359;49.358;11.256;2023-05-28T07:44:04;11.90;;;4.05;;
8642;SDS011;4359;49.358;11.256;2023-05-28T07:46:31;14.65;;;3.67;;
8642;SDS011;4359;49.358;11.256;2023-05-28T07:48:57;12.60;;;4.68;;
8642;SDS011;4359;49.358;11.256;2023-05-28T07:51:22;8.57;;;3.90;;
8642;SDS011;4359;49.358;11.256;2023-05-28T07:53:48;9.93;;;4.00;;
8642;SDS011;4359;49.358;11.256;2023-05-28T07:56:14;8.35;;;3.85;;
8642;SDS011;4359;49.358;11.256;2023-05-28T07:58:43;11.40;;;4.00;;
8642;SDS011;4359;49.358;11.256;2023-05-28T08:01:11;11.13;;;4.35;;
8642;SDS011;4359;49.358;11.256;2023-05-28T08:03:37;10.48;;;3.90;;
8642;SDS011;4359;49.358;11.256;2023-05-28T08:06:03;10.82;;;4.15;;
8642;SDS011;4359;49.358;11.256;2023-05-28T08:08:29;12.68;;;3.83;;
8642;SDS011;4359;49.358;11.256;2023-05-28T08:10:55;10.55;;;4.10;;
8642;SDS011;4359;49.358;11.256;2023-05-28T08:13:21;11.95;;;4.07;;
8642;SDS011;4359;49.358;11.256;2023-05-28T08:15:47;11.27;;;3.75;;
8642;SDS011;4359;49.358;11.256;2023-05-28T08:18:13;11.27;;;3.97;;
8642;SDS011;4359;49.358;11.256;2023-05-28T08:20:38;8.25;;;3.55;;
8642;SDS011;4359;49.358;11.256;2023-05-28T08:23:04;11.68;;;3.97;;
8642;SDS011;4359;49.358;11.256;2023-05-28T08:25:32;9.23;;;3.60;;
8642;SDS011;4359;49.358;11.256;2023-05-28T08:27:58;9.25;;;3.90;;
8642;SDS011;4359;49.358;11.256;2023-05-28T08:30:24;10.55;;;3.47;;
8642;SDS011;4359;49.358;11.256;2023-05-28T08:32:49;8.88;;;3.65;;
8642;SDS011;4359;49.358;11.256;2023-05-28T08:35:15;12.35;;;3.70;;
8642;SDS011;4359;49.358;11.256;2023-05-28T08:37:41;9.10;;;3.78;;
8642;SDS011;4359;49.358;11.256;2023-05-28T08:40:07;9.52;;;3.58;;
8642;SDS011;4359;49.358;11.256;2023-05-28T08:42:34;10.00;;;3.65;;
8642;SDS011;4359;49.358;11.256;2023-05-28T08:45:00;12.40;;;3.53;;
8642;SDS011;4359;49.358;11.256;2023-05-28T08:47:33;11.20;;;4.28;;
8642;SDS011;4359;49.358;11.256;2023-05-28T08:50:04;10.23;;;4.20;;
8642;SDS011;4359;49.358;11.256;2023-05-28T08:52:32;8.40;;;3.97;;
8642;SDS011;4359;49.358;11.256;2023-05-28T08:54:59;18.10;;;5.45;;
8642;SDS011;4359;49.358;11.256;2023-05-28T08:57:25;9.50;;;3.90;;
8642;SDS011;4359;49.358;11.256;2023-05-28T08:59:53;10.82;;;4.32;;
8642;SDS011;4359;49.358;11.256;2023-05-28T09:02:28;9.30;;;3.78;;
8642;SDS011;4359;49.358;11.256;2023-05-28T09:04:54;7.65;;;3.47;;
8642;SDS011;4359;49.358;11.256;2023-05-28T09:07:22;10.55;;;3.78;;
8642;SDS011;4359;49.358;11.256;2023-05-28T09:09:48;9.15;;;4.30;;
8642;SDS011;4359;49.358;11.256;2023-05-28T09:12:19;6.85;;;3.75;;
8642;SDS011;4359;49.358;11.256;2023-05-28T09:14:48;10.77;;;3.53;;
8642;SDS011;4359;49.358;11.256;2023-05-28T09:17:15;7.40;;;3.45;;
8642;SDS011;4359;49.358;11.256;2023-05-28T09:19:49;9.93;;;3.50;;
8642;SDS011;4359;49.358;11.256;2023-05-28T09:22:19;11.73;;;3.78;;
8642;SDS011;4359;49.358;11.256;2023-05-28T09:24:48;8.40;;;3.28;;
8642;SDS011;4359;49.358;11.256;2023-05-28T09:27:15;9.57;;;3.70;;
8642;SDS011;4359;49.358;11.256;2023-05-28T09:29:44;10.52;;;4.00;;
8642;SDS011;4359;49.358;11.256;2023-05-28T09:32:11;9.57;;;3.85;;
8642;SDS011;4359;49.358;11.256;2023-05-28T09:34:42;8.70;;;3.38;;
8642;SDS011;4359;49.358;11.256;2023-05-28T09:37:08;9.75;;;3.58;;
8642;SDS011;4359;49.358;11.256;2023-05-28T09:39:33;9.60;;;3.92;;
8642;SDS011;4359;49.358;11.256;2023-05-28T09:42:00;8.60;;;3.58;;
8642;SDS011;4359;49.358;11.256;2023-05-28T09:44:45;11.40;;;3.97;;
8642;SDS011;4359;49.358;11.256;2023-05-28T09:47:14;7.68;;;3.63;;
8642;SDS011;4359;49.358;11.256;2023-05-28T09:49:44;8.73;;;3.53;;
8642;SDS011;4359;49.358;11.256;2023-05-28T09:52:20;8.00;;;3.63;;
8642;SDS011;4359;49.358;11.256;2023-05-28T09:54:56;8.73;;;3.40;;
8642;SDS011;4359;49.358;11.256;2023-05-28T09:57:29;10.70;;;3.83;;
8642;SDS011;4359;49.358;11.256;2023-05-28T09:59:55;8.13;;;3.80;;
8642;SDS011;4359;49.358;11.256;2023-05-28T10:04:57;8.05;;;3.45;;
8642;SDS011;4359;49.358;11.256;2023-05-28T10:07:28;11.20;;;3.83;;
8642;SDS011;4359;49.358;11.256;2023-05-28T10:09:54;7.32;;;3.60;;
8642;SDS011;4359;49.358;11.256;2023-05-28T10:12:22;8.48;;;3.60;;
8642;SDS011;4359;49.358;11.256;2023-05-28T10:14:52;7.53;;;3.80;;
8642;SDS011;4359;49.358;11.256;2023-05-28T10:17:17;8.25;;;3.60;;
8642;SDS011;4359;49.358;11.256;2023-05-28T10:19:44;8.35;;;3.53;;
8642;SDS011;4359;49.358;11.256;2023-05-28T10:22:13;12.00;;;3.70;;
8642;SDS011;4359;49.358;11.256;2023-05-28T10:24:45;6.45;;;3.50;;
8642;SDS011;4359;49.358;11.256;2023-05-28T10:27:12;11.93;;;3.67;;
8642;SDS011;4359;49.358;11.256;2023-05-28T10:29:44;10.20;;;3.47;;
8642;SDS011;4359;49.358;11.256;2023-05-28T10:32:14;7.53;;;3.50;;
8642;SDS011;4359;49.358;11.256;2023-05-28T10:34:41;10.02;;;4.20;;
8642;SDS011;4359;49.358;11.256;2023-05-28T10:37:08;9.05;;;3.78;;
8642;SDS011;4359;49.358;11.256;2023-05-28T10:39:40;8.65;;;3.45;;
8642;SDS011;4359;49.358;11.256;2023-05-28T10:42:14;6.97;;;3.40;;
8642;SDS011;4359;49.358;11.256;2023-05-28T10:47:31;10.98;;;4.28;;
8642;SDS011;4359;49.358;11.256;2023-05-28T10:52:32;7.93;;;3.33;;
8642;SDS011;4359;49.358;11.256;2023-05-28T10:54:58;7.05;;;3.33;;
8642;SDS011;4359;49.358;11.256;2023-05-28T10:57:38;9.50;;;3.75;;
8642;SDS011;4359;49.358;11.256;2023-05-28T11:00:33;9.75;;;3.60;;
8642;SDS011;4359;49.358;11.256;2023-05-28T11:03:05;10.45;;;3.72;;
8642;SDS011;4359;49.358;11.256;2023-05-28T11:05:30;6.65;;;3.25;;
8642;SDS011;4359;49.358;11.256;2023-05-28T11:07:56;7.88;;;3.70;;
8642;SDS011;4359;49.358;11.256;2023-05-28T11:10:23;7.65;;;3.65;;
8642;SDS011;4359;49.358;11.256;2023-05-28T11:12:49;6.10;;;3.58;;
8642;SDS011;4359;49.358;11.256;2023-05-28T11:15:15;7.13;;;3.65;;
8642;SDS011;4359;49.358;11.256;2023-05-28T11:17:41;6.72;;;3.33;;
8642;SDS011;4359;49.358;11.256;2023-05-28T11:22:49;7.78;;;3.28;;
8642;SDS011;4359;49.358;11.256;2023-05-28T11:25:15;7.80;;;3.88;;
8642;SDS011;4359;49.358;11.256;2023-05-28T11:27:41;7.72;;;3.58;;
8642;SDS011;4359;49.358;11.256;2023-05-28T11:32:36;6.55;;;3.33;;
8642;SDS011;4359;49.358;11.256;2023-05-28T11:35:02;7.80;;;3.63;;
8642;SDS011;4359;49.358;11.256;2023-05-28T11:37:32;7.00;;;3.28;;
8642;SDS011;4359;49.358;11.256;2023-05-28T11:40:00;9.70;;;3.50;;
8642;SDS011;4359;49.358;11.256;2023-05-28T11:42:30;7.05;;;3.60;;
8642;SDS011;4359;49.358;11.256;2023-05-28T11:44:56;7.60;;;3.67;;
8642;SDS011;4359;49.358;11.256;2023-05-28T11:47:22;7.43;;;3.40;;
8642;SDS011;4359;49.358;11.256;2023-05-28T11:49:49;7.45;;;3.30;;
8642;SDS011;4359;49.358;11.256;2023-05-28T11:54:43;6.38;;;3.45;;
8642;SDS011;4359;49.358;11.256;2023-05-28T11:57:10;6.22;;;3.33;;
8642;SDS011;4359;49.358;11.256;2023-05-28T11:59:36;7.13;;;3.53;;
8642;SDS011;4359;49.358;11.256;2023-05-28T12:02:12;6.30;;;3.25;;
8642;SDS011;4359;49.358;11.256;2023-05-28T12:04:39;7.18;;;3.40;;
8642;SDS011;4359;49.358;11.256;2023-05-28T12:07:17;8.30;;;3.35;;
8642;SDS011;4359;49.358;11.256;2023-05-28T12:09:42;6.28;;;3.47;;
8642;SDS011;4359;49.358;11.256;2023-05-28T12:12:11;6.35;;;3.10;;
8642;SDS011;4359;49.358;11.256;2023-05-28T12:14:37;6.78;;;3.08;;
8642;SDS011;4359;49.358;11.256;2023-05-28T12:17:09;8.27;;;3.17;;
8642;SDS011;4359;49.358;11.256;2023-05-28T12:19:35;7.03;;;3.03;;
8642;SDS011;4359;49.358;11.256;2023-05-28T12:22:02;11.20;;;3.33;;
8642;SDS011;4359;49.358;11.256;2023-05-28T12:24:37;8.57;;;4.03;;
8642;SDS011;4359;49.358;11.256;2023-05-28T12:27:02;9.68;;;3.28;;
8642;SDS011;4359;49.358;11.256;2023-05-28T12:29:28;8.55;;;3.50;;
8642;SDS011;4359;49.358;11.256;2023-05-28T12:31:57;8.38;;;3.80;;
8642;SDS011;4359;49.358;11.256;2023-05-28T12:34:26;5.63;;;3.03;;
8642;SDS011;4359;49.358;11.256;2023-05-28T12:36:52;7.88;;;3.47;;
8642;SDS011;4359;49.358;11.256;2023-05-28T12:39:17;6.25;;;3.05;;
8642;SDS011;4359;49.358;11.256;2023-05-28T12:41:43;7.57;;;3.28;;
8642;SDS011;4359;49.358;11.256;2023-05-28T12:44:08;6.93;;;3.05;;
8642;SDS011;4359;49.358;11.256;2023-05-28T12:46:34;5.70;;;3.03;;
8642;SDS011;4359;49.358;11.256;2023-05-28T12:49:00;9.18;;;2.88;;
8642;SDS011;4359;49.358;11.256;2023-05-28T12:51:25;9.82;;;3.63;;
8642;SDS011;4359;49.358;11.256;2023-05-28T12:53:51;8.18;;;3.33;;
8642;SDS011;4359;49.358;11.256;2023-05-28T12:56:17;9.32;;;3.17;;
8642;SDS011;4359;49.358;11.256;2023-05-28T12:58:43;9.93;;;3.17;;
8642;SDS011;4359;49.358;11.256;2023-05-28T13:03:36;5.80;;;2.75;;
8642;SDS011;4359;49.358;11.256;2023-05-28T13:06:02;8.77;;;3.40;;
8642;SDS011;4359;49.358;11.256;2023-05-28T13:08:28;7.70;;;3.30;;
8642;SDS011;4359;49.358;11.256;2023-05-28T13:10:53;5.25;;;2.75;;
8642;SDS011;4359;49.358;11.256;2023-05-28T13:13:19;7.45;;;3.00;;
8642;SDS011;4359;49.358;11.256;2023-05-28T13:15:45;7.38;;;2.70;;
8642;SDS011;4359;49.358;11.256;2023-05-28T13:18:10;6.45;;;3.13;;
8642;SDS011;4359;49.358;11.256;2023-05-28T13:20:36;6.95;;;3.00;;
8642;SDS011;4359;49.358;11.256;2023-05-28T13:23:02;5.60;;;3.25;;
8642;SDS011;4359;49.358;11.256;2023-05-28T13:25:27;8.95;;;2.85;;
8642;SDS011;4359;49.358;11.256;2023-05-28T13:27:53;7.70;;;2.97;;
8642;SDS011;4359;49.358;11.256;2023-05-28T13:30:19;7.97;;;3.10;;
8642;SDS011;4359;49.358;11.256;2023-05-28T13:32:45;7.57;;;2.92;;
8642;SDS011;4359;49.358;11.256;2023-05-28T13:35:10;7.47;;;2.95;;
8642;SDS011;4359;49.358;11.256;2023-05-28T13:37:37;6.10;;;2.85;;
8642;SDS011;4359;49.358;11.256;2023-05-28T13:40:04;6.55;;;3.00;;
8642;SDS011;4359;49.358;11.256;2023-05-28T13:42:33;9.48;;;3.15;;
8642;SDS011;4359;49.358;11.256;2023-05-28T13:45:00;7.90;;;2.88;;
8642;SDS011;4359;49.358;11.256;2023-05-28T13:47:25;8.90;;;3.30;;
8642;SDS011;4359;49.358;11.256;2023-05-28T13:49:51;6.53;;;2.90;;
8642;SDS011;4359;49.358;11.256;2023-05-28T13:52:17;6.57;;;2.67;;
8642;SDS011;4359;49.358;11.256;2023-05-28T13:54:43;9.23;;;2.80;;
8642;SDS011;4359;49.358;11.256;2023-05-28T13:57:09;5.72;;;2.58;;
8642;SDS011;4359;49.358;11.256;2023-05-28T13:59:35;7.40;;;2.80;;
8642;SDS011;4359;49.358;11.256;2023-05-28T14:02:01;8.35;;;4.03;;
8642;SDS011;4359;49.358;11.256;2023-05-28T14:04:27;6.13;;;2.65;;
8642;SDS011;4359;49.358;11.256;2023-05-28T14:06:52;8.70;;;2.85;;
8642;SDS011;4359;49.358;11.256;2023-05-28T14:09:18;12.50;;;2.63;;
8642;SDS011;4359;49.358;11.256;2023-05-28T14:11:44;7.20;;;3.00;;
8642;SDS011;4359;49.358;11.256;2023-05-28T14:14:11;5.00;;;2.67;;
8642;SDS011;4359;49.358;11.256;2023-05-28T14:16:36;7.53;;;2.72;;
8642;SDS011;4359;49.358;11.256;2023-05-28T14:19:02;6.35;;;3.13;;
8642;SDS011;4359;49.358;11.256;2023-05-28T14:21:28;6.80;;;3.00;;
8642;SDS011;4359;49.358;11.256;2023-05-28T14:23:53;7.93;;;2.80;;
8642;SDS011;4359;49.358;11.256;2023-05-28T14:26:19;6.20;;;2.55;;
8642;SDS011;4359;49.358;11.256;2023-05-28T14:28:45;8.38;;;3.15;;
8642;SDS011;4359;49.358;11.256;2023-05-28T14:31:10;6.88;;;2.58;;
8642;SDS011;4359;49.358;11.256;2023-05-28T14:33:36;6.35;;;2.80;;
8642;SDS011;4359;49.358;11.256;2023-05-28T14:36:02;7.47;;;2.88;;
8642;SDS011;4359;49.358;11.256;2023-05-28T14:38:27;5.32;;;2.70;;
8642;SDS011;4359;49.358;11.256;2023-05-28T14:40:53;5.65;;;2.65;;
8642;SDS011;4359;49.358;11.256;2023-05-28T14:43:19;6.85;;;3.00;;
8642;SDS011;4359;49.358;11.256;2023-05-28T14:45:45;5.45;;;2.80;;
8642;SDS011;4359;49.358;11.256;2023-05-28T14:48:10;7.05;;;2.72;;
8642;SDS011;4359;49.358;11.256;2023-05-28T14:50:36;6.88;;;2.95;;
8642;SDS011;4359;49.358;11.256;2023-05-28T14:53:01;6.88;;;2.80;;
8642;SDS011;4359;49.358;11.256;2023-05-28T14:55:28;7.45;;;3.00;;
8642;SDS011;4359;49.358;11.256;2023-05-28T14:57:53;8.63;;;3.20;;
8642;SDS011;4359;49.358;11.256;2023-05-28T15:00:19;8.30;;;3.03;;
8642;SDS011;4359;49.358;11.256;2023-05-28T15:02:45;4.22;;;2.40;;
8642;SDS011;4359;49.358;11.256;2023-05-28T15:05:11;4.40;;;2.70;;
8642;SDS011;4359;49.358;11.256;2023-05-28T15:07:36;6.57;;;2.80;;
8642;SDS011;4359;49.358;11.256;2023-05-28T15:10:02;6.25;;;2.42;;
8642;SDS011;4359;49.358;11.256;2023-05-28T15:12:29;7.45;;;2.40;;
8642;SDS011;4359;49.358;11.256;2023-05-28T15:14:55;6.97;;;2.80;;
8642;SDS011;4359;49.358;11.256;2023-05-28T15:17:20;9.75;;;2.92;;
8642;SDS011;4359;49.358;11.256;2023-05-28T15:19:47;5.55;;;2.67;;
8642;SDS011;4359;49.358;11.256;2023-05-28T15:22:13;9.85;;;3.42;;
8642;SDS011;4359;49.358;11.256;2023-05-28T15:24:40;7.32;;;2.80;;
8642;SDS011;4359;49.358;11.256;2023-05-28T15:27:06;6.93;;;3.08;;
8642;SDS011;4359;49.358;11.256;2023-05-28T15:29:32;6.63;;;2.88;;
8642;SDS011;4359;49.358;11.256;2023-05-28T15:31:57;6.53;;;3.47;;
8642;SDS011;4359;49.358;11.256;2023-05-28T15:34:26;7.03;;;3.00;;
8642;SDS011;4359;49.358;11.256;2023-05-28T15:36:51;5.85;;;3.20;;
8642;SDS011;4359;49.358;11.256;2023-05-28T15:39:17;7.32;;;3.05;;
8642;SDS011;4359;49.358;11.256;2023-05-28T15:41:43;6.70;;;3.55;;
8642;SDS011;4359;49.358;11.256;2023-05-28T15:44:11;7.28;;;3.17;;
8642;SDS011;4359;49.358;11.256;2023-05-28T15:46:37;7.43;;;2.75;;
8642;SDS011;4359;49.358;11.256;2023-05-28T15:49:03;8.13;;;3.28;;
8642;SDS011;4359;49.358;11.256;2023-05-28T15:51:29;6.63;;;2.90;;
8642;SDS011;4359;49.358;11.256;2023-05-28T15:53:57;8.68;;;3.33;;
8642;SDS011;4359;49.358;11.256;2023-05-28T15:56:23;5.85;;;2.97;;
8642;SDS011;4359;49.358;11.256;2023-05-28T15:58:49;6.47;;;3.10;;
8642;SDS011;4359;49.358;11.256;2023-05-28T16:01:15;7.93;;;3.15;;
8642;SDS011;4359;49.358;11.256;2023-05-28T16:03:45;6.10;;;3.58;;
8642;SDS011;4359;49.358;11.256;2023-05-28T16:06:11;7.50;;;3.28;;
8642;SDS011;4359;49.358;11.256;2023-05-28T16:08:37;7.88;;;3.20;;
8642;SDS011;4359;49.358;11.256;2023-05-28T16:11:03;10.52;;;3.58;;
8642;SDS011;4359;49.358;11.256;2023-05-28T16:13:30;8.20;;;3.40;;
8642;SDS011;4359;49.358;11.256;2023-05-28T16:15:57;5.85;;;2.80;;
8642;SDS011;4359;49.358;11.256;2023-05-28T16:18:24;8.30;;;3.40;;
8642;SDS011;4359;49.358;11.256;2023-05-28T16:20:50;7.70;;;3.17;;
8642;SDS011;4359;49.358;11.256;2023-05-28T16:23:17;8.10;;;3.60;;
8642;SDS011;4359;49.358;11.256;2023-05-28T16:25:43;7.63;;;3.10;;
8642;SDS011;4359;49.358;11.256;2023-05-28T16:28:09;5.72;;;3.45;;
8642;SDS011;4359;49.358;11.256;2023-05-28T16:30:36;6.93;;;3.10;;